createdAt,value
2024-01-26T00:00:27.220Z,4.46
2024-01-26T00:02:56.307Z,4.25
2024-01-26T00:05:23.977Z,4.63
2024-01-26T00:07:51.491Z,4.43
2024-01-26T00:10:19.009Z,4.57
2024-01-26T00:12:46.592Z,4.68
2024-01-26T00:15:15.162Z,4.41
2024-01-26T00:17:42.806Z,4.51
2024-01-26T00:20:12.105Z,4.42
2024-01-26T00:22:39.680Z,4.19
2024-01-26T00:25:07.831Z,4.47
2024-01-26T00:27:35.529Z,4.23
2024-01-26T00:30:03.030Z,4.16
2024-01-26T00:32:30.829Z,4.12
2024-01-26T00:34:58.483Z,3.68
2024-01-26T00:37:27.538Z,3.92
2024-01-26T00:39:55.072Z,3.49
2024-01-26T00:42:22.488Z,3.68
2024-01-26T00:44:49.922Z,3.84
2024-01-26T00:47:17.367Z,3.78
2024-01-26T00:49:51.677Z,3.47
2024-01-26T00:52:20.321Z,3.84
2024-01-26T00:54:49.614Z,3.77
2024-01-26T00:57:17.228Z,3.77
2024-01-26T00:59:44.669Z,3.64
2024-01-26T01:02:12.328Z,3.69
2024-01-26T01:04:40.063Z,3.63
2024-01-26T01:07:07.700Z,3.37
2024-01-26T01:09:35.150Z,3.17
2024-01-26T01:12:04.309Z,3.34
2024-01-26T01:14:31.918Z,3.11
2024-01-26T01:16:59.365Z,3.26
2024-01-26T01:19:26.920Z,2.83
2024-01-26T01:21:54.480Z,3.03
2024-01-26T01:24:21.808Z,3.08
2024-01-26T01:26:49.289Z,3.34
2024-01-26T01:29:18.348Z,3.22
2024-01-26T01:31:45.695Z,3.47
2024-01-26T01:34:13.471Z,3.46
2024-01-26T01:36:41.102Z,3.46
2024-01-26T01:39:08.634Z,3.00
2024-01-26T01:41:36.225Z,3.25
2024-01-26T01:44:03.908Z,3.44
2024-01-26T01:46:33.143Z,3.12
2024-01-26T01:49:00.796Z,2.86
2024-01-26T01:51:32.221Z,3.00
2024-01-26T01:54:00.237Z,3.20
2024-01-26T01:56:30.609Z,3.10
2024-01-26T01:59:00.346Z,3.15
2024-01-26T02:01:27.823Z,3.12
2024-01-26T02:03:56.853Z,3.14
2024-01-26T02:06:24.357Z,2.73
2024-01-26T02:08:51.811Z,2.67
2024-01-26T02:11:19.392Z,2.79
2024-01-26T02:13:46.914Z,3.07
2024-01-26T02:16:14.300Z,2.99
2024-01-26T02:18:41.904Z,2.83
2024-01-26T02:21:10.881Z,2.83
2024-01-26T02:23:40.038Z,2.80
2024-01-26T02:26:07.631Z,2.57
2024-01-26T02:28:35.107Z,2.74
2024-01-26T02:31:02.599Z,3.14
2024-01-26T02:33:30.267Z,3.17
2024-01-26T02:35:57.850Z,2.60
2024-01-26T02:38:25.269Z,2.64
2024-01-26T02:40:54.400Z,2.87
2024-01-26T02:43:21.865Z,3.06
2024-01-26T02:45:49.344Z,2.72
2024-01-26T02:48:16.914Z,2.83
2024-01-26T02:50:44.475Z,2.76
2024-01-26T02:53:11.894Z,3.04
2024-01-26T02:55:39.352Z,2.75
2024-01-26T02:58:08.326Z,2.47
2024-01-26T03:00:35.724Z,2.86
2024-01-26T03:03:03.458Z,2.53
2024-01-26T03:05:31.022Z,2.83
2024-01-26T03:07:58.444Z,2.97
2024-01-26T03:10:25.841Z,2.50
2024-01-26T03:12:53.282Z,2.52
2024-01-26T03:15:22.148Z,2.63
2024-01-26T03:17:49.631Z,2.21
2024-01-26T03:20:17.109Z,2.13
2024-01-26T03:22:44.780Z,2.51
2024-01-26T03:25:12.298Z,2.21
2024-01-26T03:27:39.939Z,1.90
2024-01-26T03:30:08.562Z,2.50
2024-01-26T03:32:37.742Z,2.23
2024-01-26T03:35:05.760Z,1.90
2024-01-26T03:37:33.325Z,2.40
2024-01-26T03:40:00.855Z,1.69
2024-01-26T03:42:28.546Z,1.75
2024-01-26T03:44:55.936Z,2.16
2024-01-26T03:47:23.383Z,1.83
2024-01-26T03:49:52.307Z,1.91
2024-01-26T03:52:19.703Z,2.12
2024-01-26T03:54:47.155Z,1.72
2024-01-26T03:57:14.731Z,2.22
2024-01-26T03:59:42.197Z,1.73
2024-01-26T04:02:09.578Z,2.28
2024-01-26T04:04:36.898Z,1.80
2024-01-26T04:07:06.045Z,2.14
2024-01-26T04:09:33.665Z,1.95
2024-01-26T04:12:01.251Z,2.48
2024-01-26T04:14:28.725Z,2.58
2024-01-26T04:16:56.209Z,1.97
2024-01-26T04:19:23.784Z,2.23
2024-01-26T04:21:51.377Z,2.05
2024-01-26T04:24:20.439Z,2.05
2024-01-26T04:26:47.845Z,2.57
2024-01-26T04:29:15.323Z,2.67
2024-01-26T04:31:42.981Z,2.54
2024-01-26T04:34:11.075Z,2.06
2024-01-26T04:36:38.841Z,2.54
2024-01-26T04:39:06.413Z,2.00
2024-01-26T04:41:35.361Z,2.72
2024-01-26T04:44:02.960Z,2.79
2024-01-26T04:46:30.755Z,2.50
2024-01-26T04:48:58.406Z,2.45
2024-01-26T04:51:25.883Z,2.46
2024-01-26T04:53:53.412Z,2.43
2024-01-26T04:56:20.981Z,2.80
2024-01-26T04:58:49.892Z,2.77
2024-01-26T05:01:17.680Z,2.80
2024-01-26T05:03:45.250Z,2.36
2024-01-26T05:06:12.992Z,2.25
2024-01-26T05:08:41.490Z,2.65
2024-01-26T05:11:08.932Z,2.67
2024-01-26T05:13:36.313Z,2.65
2024-01-26T05:16:06.104Z,2.57
2024-01-26T05:18:33.667Z,2.27
2024-01-26T05:21:01.367Z,2.07
2024-01-26T05:23:28.688Z,2.02
2024-01-26T05:25:56.281Z,2.66
2024-01-26T05:28:23.747Z,2.42
2024-01-26T05:30:51.072Z,2.36
2024-01-26T05:33:20.123Z,2.27
2024-01-26T05:35:47.544Z,2.64
2024-01-26T05:38:15.185Z,2.33
2024-01-26T05:40:42.644Z,2.60
2024-01-26T05:43:10.151Z,2.29
2024-01-26T05:45:37.658Z,2.07
2024-01-26T05:48:06.272Z,2.42
2024-01-26T05:50:36.093Z,2.28
2024-01-26T05:53:03.618Z,2.35
2024-01-26T05:55:31.062Z,2.67
2024-01-26T05:57:58.508Z,2.66
2024-01-26T06:00:26.076Z,2.09
2024-01-26T06:02:53.603Z,2.67
2024-01-26T06:05:21.194Z,2.65
2024-01-26T06:07:51.349Z,2.27
2024-01-26T06:10:18.768Z,2.23
2024-01-26T06:12:46.227Z,2.58
2024-01-26T06:15:13.762Z,2.80
2024-01-26T06:17:41.350Z,2.63
2024-01-26T06:20:09.458Z,2.75
2024-01-26T06:22:36.961Z,2.40
2024-01-26T06:25:06.091Z,2.43
2024-01-26T06:27:33.692Z,2.50
2024-01-26T06:30:01.131Z,2.85
2024-01-26T06:32:28.822Z,2.69
2024-01-26T06:34:56.330Z,2.69
2024-01-26T06:37:23.803Z,2.86
2024-01-26T06:39:51.167Z,2.89
2024-01-26T06:42:20.295Z,2.36
2024-01-26T06:44:47.657Z,2.93
2024-01-26T06:47:15.189Z,2.74
2024-01-26T06:49:42.616Z,2.47
2024-01-26T06:52:09.968Z,2.75
2024-01-26T06:54:37.428Z,2.90
2024-01-26T06:57:05.498Z,2.41
2024-01-26T06:59:34.466Z,2.79
2024-01-26T07:02:02.104Z,3.02
2024-01-26T07:04:29.979Z,3.10
2024-01-26T07:06:57.673Z,2.76
2024-01-26T07:09:25.446Z,2.93
2024-01-26T07:11:53.088Z,2.93
2024-01-26T07:14:20.723Z,2.83
2024-01-26T07:16:49.632Z,3.13
2024-01-26T07:19:17.477Z,3.25
2024-01-26T07:21:45.196Z,3.32
2024-01-26T07:24:12.898Z,3.50
2024-01-26T07:26:40.548Z,3.04
2024-01-26T07:29:08.059Z,3.76
2024-01-26T07:31:35.456Z,3.72
2024-01-26T07:34:04.609Z,3.78
2024-01-26T07:36:32.296Z,3.91
2024-01-26T07:38:59.878Z,3.81
2024-01-26T07:41:27.483Z,4.15
2024-01-26T07:43:54.857Z,4.10
2024-01-26T07:46:22.504Z,3.76
2024-01-26T07:48:50.130Z,3.72
2024-01-26T07:51:19.308Z,3.51
2024-01-26T07:53:47.017Z,3.69
2024-01-26T07:56:14.527Z,3.78
2024-01-26T07:58:42.084Z,3.95
2024-01-26T08:01:12.169Z,4.26
2024-01-26T08:03:39.801Z,4.26
2024-01-26T08:06:08.872Z,4.53
2024-01-26T08:08:37.983Z,4.30
2024-01-26T08:11:05.514Z,4.26
2024-01-26T08:13:32.994Z,4.23
2024-01-26T08:16:00.736Z,4.55
2024-01-26T08:18:30.884Z,4.02
2024-01-26T08:20:58.551Z,4.51
2024-01-26T08:23:25.946Z,4.34
2024-01-26T08:25:55.081Z,4.53
2024-01-26T08:28:22.756Z,3.99
2024-01-26T08:30:50.308Z,4.30
2024-01-26T08:33:18.026Z,4.79
2024-01-26T08:35:45.916Z,4.32
2024-01-26T08:38:13.441Z,4.31
2024-01-26T08:40:40.901Z,3.96
2024-01-26T08:43:09.910Z,3.92
2024-01-26T08:45:37.429Z,4.17
2024-01-26T08:48:06.107Z,4.22
2024-01-26T08:50:34.225Z,4.19
2024-01-26T08:53:02.235Z,3.77
2024-01-26T08:55:29.992Z,4.12
2024-01-26T08:57:57.420Z,4.00
2024-01-26T09:00:26.480Z,4.51
2024-01-26T09:02:53.935Z,4.44
2024-01-26T09:05:21.932Z,4.61
2024-01-26T09:07:49.347Z,4.11
2024-01-26T09:10:19.401Z,4.46
2024-01-26T09:12:47.273Z,4.04
2024-01-26T09:15:15.680Z,4.20
2024-01-26T09:17:44.987Z,4.43
2024-01-26T09:20:13.331Z,4.63
2024-01-26T09:22:40.814Z,4.47
2024-01-26T09:25:08.978Z,4.76
2024-01-26T09:27:36.619Z,4.18
2024-01-26T09:30:05.597Z,4.26
2024-01-26T09:32:33.821Z,4.65
2024-01-26T09:35:03.437Z,4.32
2024-01-26T09:37:31.431Z,4.86
2024-01-26T09:39:59.410Z,5.10
2024-01-26T09:42:27.370Z,5.41
2024-01-26T09:44:55.045Z,5.29
2024-01-26T09:47:24.154Z,5.64
2024-01-26T09:49:56.538Z,4.97
2024-01-26T09:52:25.643Z,5.50
2024-01-26T09:54:54.979Z,5.04
2024-01-26T09:57:23.214Z,4.97
2024-01-26T09:59:50.681Z,4.54
2024-01-26T10:02:18.548Z,4.84
2024-01-26T10:04:46.078Z,4.60
2024-01-26T10:07:13.799Z,5.02
2024-01-26T10:09:42.854Z,5.20
2024-01-26T10:12:10.469Z,5.02
2024-01-26T10:14:38.346Z,4.49
2024-01-26T10:17:06.203Z,4.93
2024-01-26T10:19:34.220Z,4.33
2024-01-26T10:22:02.100Z,4.42
2024-01-26T10:24:30.169Z,4.63
2024-01-26T10:26:59.288Z,5.15
2024-01-26T10:29:26.788Z,4.48
2024-01-26T10:31:54.703Z,5.08
2024-01-26T10:34:22.814Z,5.02
2024-01-26T10:36:50.980Z,4.69
2024-01-26T10:39:22.830Z,4.21
2024-01-26T10:41:52.219Z,4.42
2024-01-26T10:44:22.468Z,4.35
2024-01-26T10:46:51.948Z,4.56
2024-01-26T10:49:21.229Z,4.75
2024-01-26T10:51:49.485Z,4.74
2024-01-26T10:54:18.750Z,4.27
2024-01-26T10:56:47.812Z,4.31
2024-01-26T10:59:15.531Z,4.57
2024-01-26T11:01:46.234Z,4.18
2024-01-26T11:04:14.073Z,4.50
2024-01-26T11:06:41.904Z,4.88
2024-01-26T11:09:11.944Z,4.58
2024-01-26T11:11:40.420Z,4.39
2024-01-26T11:14:11.819Z,4.61
2024-01-26T11:16:40.786Z,4.63
2024-01-26T11:19:10.313Z,4.36
2024-01-26T11:21:38.273Z,4.64
2024-01-26T11:24:16.659Z,4.08
2024-01-26T11:26:57.974Z,4.66
2024-01-26T11:29:32.012Z,4.73
2024-01-26T11:31:59.717Z,4.42
2024-01-26T11:34:29.001Z,4.34
2024-01-26T11:37:11.024Z,4.62
2024-01-26T11:39:38.948Z,5.01
2024-01-26T11:42:09.568Z,4.48
2024-01-26T11:44:40.757Z,4.40
2024-01-26T11:47:19.859Z,4.77
2024-01-26T11:49:48.944Z,4.28
2024-01-26T11:52:17.260Z,4.29
2024-01-26T11:54:45.892Z,4.27
2024-01-26T11:57:13.894Z,4.15
2024-01-26T11:59:41.661Z,4.44
2024-01-26T12:02:09.972Z,4.31
2024-01-26T12:04:41.347Z,3.98
2024-01-26T12:07:10.611Z,4.34
2024-01-26T12:09:38.157Z,4.42
2024-01-26T12:12:06.917Z,4.20
2024-01-26T12:14:36.816Z,4.22
2024-01-26T12:17:05.177Z,4.01
2024-01-26T12:19:35.498Z,4.11
2024-01-26T12:22:06.256Z,4.31
2024-01-26T12:24:36.089Z,3.97
2024-01-26T12:27:05.184Z,4.15
2024-01-26T12:29:34.595Z,4.05
2024-01-26T12:32:04.242Z,4.29
2024-01-26T12:34:32.702Z,4.08
2024-01-26T12:37:00.352Z,3.88
2024-01-26T12:39:28.280Z,3.72
2024-01-26T12:41:57.532Z,3.63
2024-01-26T12:44:28.312Z,3.97
2024-01-26T12:46:56.471Z,4.36
2024-01-26T12:49:24.737Z,4.03
2024-01-26T12:51:53.578Z,3.83
2024-01-26T12:54:21.549Z,4.21
2024-01-26T12:56:49.133Z,4.05
2024-01-26T12:59:18.172Z,4.03
2024-01-26T13:01:45.619Z,3.48
2024-01-26T13:04:13.295Z,3.86
2024-01-26T13:06:40.948Z,4.09
2024-01-26T13:09:09.148Z,3.77
2024-01-26T13:11:37.532Z,3.74
2024-01-26T13:14:05.104Z,3.50
2024-01-26T13:16:34.314Z,3.51
2024-01-26T13:19:01.913Z,3.87
2024-01-26T13:21:30.934Z,4.05
2024-01-26T13:23:58.644Z,3.82
2024-01-26T13:26:26.198Z,3.63
2024-01-26T13:28:53.627Z,3.75
2024-01-26T13:31:21.203Z,3.44
2024-01-26T13:33:51.972Z,3.42
2024-01-26T13:36:19.799Z,3.58
2024-01-26T13:38:47.559Z,3.76
2024-01-26T13:41:15.223Z,3.95
2024-01-26T13:43:43.735Z,3.27
2024-01-26T13:46:11.351Z,3.45
2024-01-26T13:48:39.054Z,3.41
2024-01-26T13:51:08.474Z,3.31
2024-01-26T13:53:38.794Z,3.39
2024-01-26T13:56:08.924Z,3.31
2024-01-26T14:01:34.893Z,2.79
2024-01-26T14:04:43.234Z,2.74
2024-01-26T14:15:04.904Z,2.54
2024-01-26T14:33:32.137Z,2.49
2024-01-26T14:36:09.687Z,2.39
2024-01-26T14:39:09.604Z,2.88
2024-01-26T14:42:42.523Z,2.20
2024-01-26T15:05:43.539Z,2.61
2024-01-26T15:08:15.296Z,2.60
2024-01-26T15:11:06.463Z,2.69
2024-01-26T15:13:35.894Z,2.65
2024-01-26T15:16:06.311Z,2.56
2024-01-26T15:21:22.300Z,2.59
2024-01-26T15:23:49.856Z,2.34
2024-01-26T15:26:17.354Z,2.54
2024-01-26T15:28:44.680Z,2.49
2024-01-26T15:31:20.733Z,2.56
2024-01-26T15:33:48.261Z,2.53
2024-01-26T15:36:16.355Z,2.43
2024-01-26T15:38:45.295Z,2.38
2024-01-26T15:41:12.700Z,2.59
2024-01-26T15:43:40.829Z,2.60
2024-01-26T15:46:08.167Z,2.59
2024-01-26T15:48:35.633Z,2.61
2024-01-26T15:51:03.293Z,2.50
2024-01-26T15:53:39.993Z,2.64
2024-01-26T15:56:09.758Z,2.65
2024-01-26T15:58:37.093Z,2.64
2024-01-26T16:01:04.954Z,2.64
2024-01-26T16:03:32.549Z,2.54
2024-01-26T16:06:00.449Z,2.61
2024-01-26T16:08:27.979Z,2.66
2024-01-26T16:10:55.322Z,2.63
2024-01-26T16:13:24.043Z,2.64
2024-01-26T16:15:51.356Z,2.65
2024-01-26T16:18:18.952Z,2.48
2024-01-26T16:20:46.942Z,2.64
2024-01-26T16:23:18.754Z,2.64
2024-01-26T16:25:54.652Z,2.52
2024-01-26T16:28:23.429Z,2.67
2024-01-26T16:30:50.764Z,2.64
2024-01-26T16:33:18.223Z,2.62
2024-01-26T16:35:45.722Z,2.67
2024-01-26T16:38:14.634Z,2.64
2024-01-26T16:40:42.174Z,2.64
2024-01-26T16:43:09.713Z,2.65
2024-01-26T16:45:38.601Z,2.63
2024-01-26T16:48:06.860Z,2.67
2024-01-26T16:50:34.478Z,2.67
2024-01-26T16:53:01.746Z,2.68
2024-01-26T16:55:34.373Z,2.71
2024-01-26T17:00:48.384Z,2.60
2024-01-26T17:03:16.084Z,2.63
2024-01-26T17:05:43.588Z,2.63
2024-01-26T17:08:11.298Z,2.72
2024-01-26T17:10:38.946Z,2.69
2024-01-26T17:13:07.992Z,2.69
2024-01-26T17:15:43.946Z,2.73
2024-01-26T17:18:12.764Z,2.67
2024-01-26T17:20:40.101Z,2.68
2024-01-26T17:23:07.466Z,2.69
2024-01-26T17:25:34.773Z,2.69
2024-01-26T17:28:02.105Z,2.69
2024-01-26T17:30:35.608Z,2.72
2024-01-26T17:33:24.393Z,2.73
2024-01-26T17:35:51.966Z,2.72
2024-01-26T17:38:27.935Z,2.72
2024-01-26T17:40:55.220Z,2.73
2024-01-26T17:43:22.490Z,2.73
2024-01-26T17:45:49.836Z,2.68
2024-01-26T17:48:25.848Z,2.71
2024-01-26T17:50:54.658Z,2.72
2024-01-26T17:53:21.967Z,2.62
2024-01-26T17:55:49.211Z,2.70
2024-01-26T17:58:16.505Z,2.62
2024-01-26T18:00:43.865Z,2.70
2024-01-26T18:03:11.363Z,2.68
2024-01-26T18:05:38.661Z,2.70
2024-01-26T18:08:07.599Z,2.59
2024-01-26T18:10:34.910Z,2.70
2024-01-26T18:13:02.198Z,2.71
2024-01-26T18:15:39.295Z,2.66
2024-01-26T18:18:07.088Z,2.71
2024-01-26T18:20:36.362Z,2.73
2024-01-26T18:23:03.807Z,2.73
2024-01-26T18:25:32.500Z,2.69
2024-01-26T18:27:59.916Z,2.67
2024-01-26T18:30:27.337Z,2.66
2024-01-26T18:32:54.841Z,2.66
2024-01-26T18:35:22.458Z,2.54
2024-01-26T18:37:49.797Z,2.54
2024-01-26T18:40:18.365Z,2.43
2024-01-26T18:42:46.955Z,2.39
2024-01-26T18:45:14.501Z,2.52
2024-01-26T18:47:41.916Z,2.55
2024-01-26T18:50:09.877Z,2.47
2024-01-26T18:52:37.408Z,2.26
2024-01-26T18:55:16.926Z,2.53
2024-01-26T18:58:05.611Z,2.59
2024-01-26T19:00:33.324Z,2.63
2024-01-26T19:03:01.052Z,2.60
2024-01-26T19:05:29.654Z,2.62
2024-01-26T19:07:56.955Z,2.62
2024-01-26T19:10:26.292Z,2.61
2024-01-26T19:12:54.387Z,2.64
2024-01-26T19:15:23.387Z,2.61
2024-01-26T19:17:50.786Z,2.61
2024-01-26T19:20:18.828Z,2.57
2024-01-26T19:22:46.122Z,2.58
2024-01-26T19:25:14.453Z,2.58
2024-01-26T19:27:41.752Z,2.59
2024-01-26T19:30:09.886Z,2.60
2024-01-26T19:32:38.916Z,2.58
2024-01-26T19:35:06.390Z,2.56
2024-01-26T19:37:35.273Z,2.55
2024-01-26T19:40:02.874Z,2.49
2024-01-26T19:42:30.419Z,2.53
2024-01-26T19:44:58.001Z,2.42
2024-01-26T19:47:25.249Z,2.46
2024-01-26T19:49:54.902Z,2.53
2024-01-26T19:52:22.334Z,2.51
2024-01-26T19:54:49.773Z,2.47
2024-01-26T19:57:17.052Z,2.37
2024-01-26T19:59:44.347Z,2.52
2024-01-26T20:02:11.628Z,2.56
2024-01-26T20:04:38.974Z,2.52
2024-01-26T20:07:10.104Z,2.56
2024-01-26T20:09:39.611Z,2.59
2024-01-26T20:12:08.088Z,2.56
2024-01-26T20:14:35.692Z,2.56
2024-01-26T20:17:07.370Z,2.57
2024-01-26T20:19:44.770Z,2.59
2024-01-26T20:22:13.588Z,2.58
2024-01-26T20:24:40.977Z,2.58
2024-01-26T20:27:08.490Z,2.57
2024-01-26T20:29:36.660Z,2.56
2024-01-26T20:32:08.931Z,2.58
2024-01-26T20:34:37.512Z,2.60
2024-01-26T20:37:05.576Z,2.57
2024-01-26T20:39:34.265Z,2.55
2024-01-26T20:42:01.713Z,2.41
2024-01-26T20:44:29.091Z,2.55
2024-01-26T20:46:58.496Z,2.53
2024-01-26T20:49:26.354Z,2.57
2024-01-26T20:51:54.881Z,2.39
2024-01-26T20:54:22.710Z,1.94
2024-01-26T20:56:51.552Z,2.27
2024-01-26T20:59:18.843Z,2.01
2024-01-26T21:01:47.346Z,1.85
2024-01-26T21:04:14.768Z,2.05
2024-01-26T21:06:48.888Z,2.19
2024-01-26T21:09:20.269Z,2.05
2024-01-26T21:11:48.095Z,2.53
2024-01-26T21:14:16.770Z,2.54
2024-01-26T21:16:44.065Z,2.54
2024-01-26T21:19:11.959Z,2.53
2024-01-26T21:21:39.359Z,2.53
2024-01-26T21:24:07.147Z,2.57
2024-01-26T21:26:36.703Z,2.57
2024-01-26T21:29:04.394Z,2.56
2024-01-26T21:31:33.256Z,2.57
2024-01-26T21:34:00.750Z,2.63
2024-01-26T21:36:28.152Z,2.59
2024-01-26T21:38:55.631Z,2.60
2024-01-26T21:41:23.051Z,2.58
2024-01-26T21:43:50.451Z,2.61
2024-01-26T21:46:17.769Z,2.58
2024-01-26T21:48:46.565Z,2.58
2024-01-26T21:51:14.090Z,2.63
2024-01-26T21:53:41.561Z,2.60
2024-01-26T21:56:08.986Z,2.63
2024-01-26T21:58:36.193Z,2.63
2024-01-26T22:01:03.424Z,2.58
2024-01-26T22:03:30.995Z,2.64
2024-01-26T22:06:02.751Z,2.63
2024-01-26T22:08:30.290Z,2.63
2024-01-26T22:10:57.447Z,2.62
2024-01-26T22:13:24.611Z,2.47
2024-01-26T22:15:51.832Z,2.62
2024-01-26T22:18:19.100Z,2.60
2024-01-26T22:20:46.813Z,2.56
2024-01-26T22:23:15.929Z,2.62
2024-01-26T22:25:43.121Z,2.46
2024-01-26T22:28:10.374Z,2.60
2024-01-26T22:30:37.713Z,2.62
2024-01-26T22:33:05.258Z,2.58
2024-01-26T22:35:32.471Z,2.60
2024-01-26T22:37:59.675Z,2.58
2024-01-26T22:40:28.258Z,2.48
2024-01-26T22:42:55.467Z,2.55
2024-01-26T22:45:22.789Z,2.56
2024-01-26T22:47:51.109Z,2.55
2024-01-26T22:50:18.522Z,2.52
2024-01-26T22:52:45.806Z,2.54
2024-01-26T22:55:13.104Z,2.59
2024-01-26T22:57:41.638Z,2.53
2024-01-26T23:00:10.215Z,2.57
2024-01-26T23:02:37.635Z,2.49
2024-01-26T23:05:05.190Z,2.51
2024-01-26T23:07:32.635Z,2.43
2024-01-26T23:09:59.894Z,2.40
2024-01-26T23:12:27.061Z,2.47
2024-01-26T23:14:57.477Z,2.47
2024-01-26T23:17:24.621Z,2.43
2024-01-26T23:19:51.843Z,2.44
2024-01-26T23:22:19.159Z,2.44
2024-01-26T23:24:46.441Z,2.34
2024-01-26T23:27:13.887Z,2.42
2024-01-26T23:29:42.173Z,2.45
2024-01-26T23:32:10.860Z,2.45
2024-01-26T23:34:38.212Z,2.41
2024-01-26T23:37:05.646Z,2.36
2024-01-26T23:39:52.712Z,2.42
2024-01-26T23:42:20.215Z,2.25
2024-01-26T23:44:49.781Z,2.40
2024-01-26T23:47:18.454Z,2.41
2024-01-26T23:49:47.483Z,2.37
2024-01-26T23:52:14.796Z,2.40
2024-01-26T23:54:43.994Z,2.39
2024-01-26T23:57:20.102Z,2.41
2024-01-26T23:59:47.429Z,2.37
